Time;durP1;ratioP1;P1;durP2;ratioP2;P2;SDS_P1;SDS_P2;PMS_P1;PMS_P2;Temp;Humidity;BMP_temperature;BMP_pressure;BME280_temperature;BME280_humidity;BME280_pressure;Samples;Min_cycle;Max_cycle;Signal;HPM_P1;HPM_P2
2021/12/03 00:01:52;;;;;;;19.13;11.73;;;;;;;-0.16;94.02;101035.28;5063832;28;20039;-63
2021/12/03 00:04:18;;;;;;;18.10;9.90;;;;;;;-0.19;94.16;101032.88;5065308;28;20028;-63
2021/12/03 00:06:43;;;;;;;18.87;11.00;;;;;;;-0.22;93.97;101033.09;5069694;28;20044;-63
2021/12/03 00:09:08;;;;;;;19.40;11.53;;;;;;;-0.24;93.90;101035.78;5066995;28;20028;-64
2021/12/03 00:11:34;;;;;;;17.83;11.50;;;;;;;-0.24;93.94;101040.16;5069431;28;20095;-63
2021/12/03 00:13:59;;;;;;;19.63;12.87;;;;;;;-0.25;93.98;101034.13;5069246;28;20047;-64
2021/12/03 00:16:24;;;;;;;21.07;12.73;;;;;;;-0.26;94.22;101029.00;5067952;28;20391;-64
2021/12/03 00:18:50;;;;;;;24.30;13.57;;;;;;;-0.26;94.22;101031.59;5068539;28;20412;-63
2021/12/03 00:21:17;;;;;;;24.93;14.37;;;;;;;-0.24;94.32;101034.97;5068479;28;20024;-64
2021/12/03 00:23:42;;;;;;;20.47;14.70;;;;;;;-0.21;94.29;101039.97;5069176;28;20024;-63
2021/12/03 00:26:08;;;;;;;27.17;16.17;;;;;;;-0.18;94.49;101037.16;5069179;28;20043;-63
2021/12/03 00:28:34;;;;;;;24.73;16.03;;;;;;;-0.16;94.62;101035.28;5067645;28;20480;-64
2021/12/03 00:31:01;;;;;;;22.23;15.50;;;;;;;-0.17;94.68;101046.69;5069126;28;20134;-63
2021/12/03 00:33:30;;;;;;;28.40;16.23;;;;;;;-0.15;94.86;101045.63;5068354;28;20048;-63
2021/12/03 00:35:55;;;;;;;26.53;16.47;;;;;;;-0.12;94.76;101048.06;5068009;28;20020;-63
2021/12/03 00:38:21;;;;;;;29.20;16.83;;;;;;;-0.11;95.02;101041.06;5067805;28;20377;-63
2021/12/03 00:40:47;;;;;;;24.27;15.00;;;;;;;-0.09;94.91;101044.41;5063947;28;20032;-64
2021/12/03 00:43:13;;;;;;;26.63;16.10;;;;;;;-0.14;94.98;101036.88;5068836;28;20259;-63
2021/12/03 00:45:38;;;;;;;23.87;14.93;;;;;;;-0.12;95.05;101036.78;5065708;28;20039;-63
2021/12/03 00:48:04;;;;;;;26.07;17.10;;;;;;;-0.08;95.02;101046.91;5063568;28;20032;-64
2021/12/03 00:50:31;;;;;;;24.80;16.33;;;;;;;-0.07;95.01;101040.75;5068306;28;20039;-64
2021/12/03 00:52:57;;;;;;;24.53;15.70;;;;;;;-0.05;95.11;101051.09;5069417;28;20112;-63
2021/12/03 00:55:25;;;;;;;24.00;16.13;;;;;;;-0.06;95.16;101050.25;5067610;28;20131;-63
2021/12/03 00:57:50;;;;;;;25.80;16.50;;;;;;;-0.07;95.15;101051.22;5066935;28;20475;-63
2021/12/03 01:00:19;;;;;;;25.77;16.57;;;;;;;-0.04;95.06;101053.63;5067304;28;20039;-63
2021/12/03 01:02:45;;;;;;;29.23;16.50;;;;;;;-0.03;95.15;101057.06;5064454;28;20032;-64
2021/12/03 01:05:10;;;;;;;31.30;15.80;;;;;;;-0.03;95.10;101054.47;5068481;28;20051;-63
2021/12/03 01:07:36;;;;;;;25.17;15.77;;;;;;;-0.10;95.13;101047.94;5065850;28;20016;-64
2021/12/03 01:10:04;;;;;;;29.40;16.70;;;;;;;-0.04;95.27;101056.22;5066351;28;20541;-64
2021/12/03 01:12:29;;;;;;;31.00;17.53;;;;;;;-0.03;95.20;101052.69;5068934;28;20107;-64
2021/12/03 01:14:54;;;;;;;28.83;16.97;;;;;;;-0.03;95.15;101067.50;5067202;28;20111;-64
2021/12/03 01:17:19;;;;;;;29.30;17.20;;;;;;;-0.08;95.12;101061.75;5067815;28;20028;-64
2021/12/03 01:19:45;;;;;;;26.57;17.07;;;;;;;-0.13;94.90;101058.59;5067291;28;20013;-64
2021/12/03 01:22:10;;;;;;;31.23;17.60;;;;;;;-0.18;94.97;101061.50;5063405;28;20100;-64
2021/12/03 01:24:35;;;;;;;29.37;17.43;;;;;;;-0.24;95.24;101072.31;5069356;28;20521;-64
2021/12/03 01:27:01;;;;;;;29.10;17.77;;;;;;;-0.28;94.82;101067.41;5065235;28;20024;-63
2021/12/03 01:29:26;;;;;;;27.83;18.00;;;;;;;-0.39;94.80;101055.84;5066733;28;20438;-64
2021/12/03 01:31:54;;;;;;;32.17;19.63;;;;;;;-0.35;94.90;101070.38;5068398;28;21143;-63
2021/12/03 01:34:20;;;;;;;33.10;20.77;;;;;;;-0.34;95.17;101066.81;5064223;28;20024;-63
2021/12/03 01:36:45;;;;;;;39.47;22.33;;;;;;;-0.31;95.23;101066.63;5068900;28;20111;-64
2021/12/03 01:39:12;;;;;;;37.33;22.87;;;;;;;-0.28;95.47;101070.00;5067147;28;20128;-64
2021/12/03 01:41:38;;;;;;;41.30;24.83;;;;;;;-0.27;95.51;101050.81;5068481;28;20017;-63
2021/12/03 01:44:04;;;;;;;43.13;26.13;;;;;;;-0.25;95.76;101052.38;5067987;28;20031;-64
2021/12/03 01:46:31;;;;;;;40.93;26.57;;;;;;;-0.23;95.87;101045.28;5062411;28;20048;-64
2021/12/03 01:48:56;;;;;;;47.97;26.60;;;;;;;-0.19;95.90;101051.16;5067390;28;20040;-64
2021/12/03 01:51:22;;;;;;;45.80;27.50;;;;;;;-0.17;96.12;101046.69;5068493;28;20484;-64
2021/12/03 01:53:48;;;;;;;47.40;29.57;;;;;;;-0.15;96.22;101035.19;5068196;28;20125;-63
2021/12/03 01:56:16;;;;;;;50.37;28.23;;;;;;;-0.12;96.38;101035.00;5064922;28;20119;-64
2021/12/03 01:58:42;;;;;;;47.63;28.33;;;;;;;-0.11;96.37;101036.69;5065187;28;20021;-63
2021/12/03 02:01:11;;;;;;;45.70;28.53;;;;;;;-0.12;96.52;101039.38;5067307;28;20028;-64
2021/12/03 02:03:38;;;;;;;50.38;28.63;;;;;;;-0.09;96.55;101044.41;5068483;28;20047;-63
2021/12/03 02:06:05;;;;;;;54.33;31.77;;;;;;;-0.05;96.51;101051.09;5067510;28;20043;-64
2021/12/03 02:08:31;;;;;;;56.83;32.07;;;;;;;-0.05;96.62;101046.72;5067447;28;20017;-63
2021/12/03 02:10:57;;;;;;;59.93;31.67;;;;;;;-0.03;96.90;101049.22;5068092;28;20498;-63
2021/12/03 02:13:22;;;;;;;62.73;35.00;;;;;;;0.00;96.80;101046.47;5070457;28;20103;-64
2021/12/03 02:15:48;;;;;;;59.33;32.87;;;;;;;0.03;96.92;101059.31;5069077;28;20447;-63
2021/12/03 02:18:16;;;;;;;63.90;35.70;;;;;;;0.05;96.94;101062.66;5071901;28;20032;-63
2021/12/03 02:20:46;;;;;;;59.33;33.87;;;;;;;0.07;97.06;101052.13;5068402;28;20191;-63
2021/12/03 02:23:13;;;;;;;62.60;35.37;;;;;;;0.07;97.25;101052.94;5071527;28;20295;-64
2021/12/03 02:25:39;;;;;;;65.07;35.87;;;;;;;0.08;97.02;101052.00;5071676;28;20055;-63
2021/12/03 02:28:04;;;;;;;63.90;36.07;;;;;;;0.10;97.10;101044.09;5070483;28;20448;-64
2021/12/03 02:30:29;;;;;;;65.07;36.77;;;;;;;0.10;97.08;101044.91;5071006;28;20115;-63
2021/12/03 02:32:55;;;;;;;65.37;35.50;;;;;;;0.07;97.20;101037.28;5071708;28;20056;-64
2021/12/03 02:35:22;;;;;;;82.10;42.50;;;;;;;0.11;97.07;101035.31;5070656;28;20032;-63
2021/12/03 02:37:48;;;;;;;94.50;44.97;;;;;;;0.10;97.03;101036.25;5065618;28;20085;-64
2021/12/03 02:40:14;;;;;;;104.63;47.07;;;;;;;0.14;97.36;101038.56;5070465;28;20028;-64
2021/12/03 02:42:41;;;;;;;103.87;47.80;;;;;;;0.15;97.36;101032.41;5070997;28;20387;-63
2021/12/03 02:45:08;;;;;;;99.53;47.23;;;;;;;0.12;97.31;101032.59;5070629;28;20035;-63
2021/12/03 02:47:34;;;;;;;106.70;47.77;;;;;;;0.13;97.55;101034.28;5069837;28;20029;-63
2021/12/03 02:49:59;;;;;;;108.10;48.27;;;;;;;0.14;97.50;101030.72;5070332;28;20036;-63
2021/12/03 02:52:25;;;;;;;124.13;52.47;;;;;;;0.15;97.46;101035.00;5068305;28;20021;-63
2021/12/03 02:54:50;;;;;;;122.53;51.30;;;;;;;0.14;97.69;101038.56;5070963;28;20073;-63
2021/12/03 02:57:15;;;;;;;122.30;50.73;;;;;;;0.17;97.46;101047.97;5070132;28;20503;-63
2021/12/03 02:59:41;;;;;;;130.50;51.47;;;;;;;0.17;97.82;101042.75;5066773;28;20480;-63
2021/12/03 03:02:07;;;;;;;130.40;51.33;;;;;;;0.15;97.78;101037.63;5070685;28;20033;-63
2021/12/03 03:04:32;;;;;;;135.97;51.87;;;;;;;0.13;97.69;101039.50;5070019;28;20025;-63
2021/12/03 03:06:57;;;;;;;147.43;54.30;;;;;;;0.12;97.79;101032.59;5070842;28;20028;-63
2021/12/03 03:09:24;;;;;;;154.70;56.30;;;;;;;0.15;97.95;101039.41;5069201;28;20027;-63
2021/12/03 03:11:49;;;;;;;161.93;59.67;;;;;;;0.16;98.13;101028.84;5067253;28;20447;-63
2021/12/03 03:14:14;;;;;;;171.23;58.20;;;;;;;0.14;98.10;101024.66;5068137;28;20063;-63
2021/12/03 03:16:40;;;;;;;186.57;60.57;;;;;;;0.11;98.21;101015.25;5069662;28;20103;-63
2021/12/03 03:19:13;;;;;;;177.73;61.80;;;;;;;0.17;98.28;101024.47;5069765;28;20023;-63
2021/12/03 03:21:39;;;;;;;183.23;61.33;;;;;;;0.17;98.36;101029.69;5069477;28;20029;-63
2021/12/03 03:24:07;;;;;;;207.40;63.60;;;;;;;0.18;98.41;101028.75;5070205;28;20039;-63
2021/12/03 03:26:34;;;;;;;201.03;62.43;;;;;;;0.19;98.64;101028.66;5070100;28;20036;-63
2021/12/03 03:28:59;;;;;;;211.17;63.53;;;;;;;0.20;98.67;101024.25;5069449;28;20020;-63
2021/12/03 03:31:25;;;;;;;207.93;60.57;;;;;;;0.21;98.88;101025.94;5070303;28;20055;-63
2021/12/03 03:33:50;;;;;;;215.47;61.80;;;;;;;0.21;98.78;101028.56;5069676;28;20056;-63
2021/12/03 03:36:16;;;;;;;214.20;62.87;;;;;;;0.23;98.80;101024.06;5070431;28;20055;-63
2021/12/03 03:38:41;;;;;;;204.40;62.03;;;;;;;0.24;98.76;101029.19;5061962;28;20089;-63
2021/12/03 03:41:06;;;;;;;183.40;57.47;;;;;;;0.25;99.10;101030.03;5069941;28;20063;-63
2021/12/03 03:43:32;;;;;;;200.73;63.97;;;;;;;0.26;99.16;101029.09;5069527;28;20040;-63
2021/12/03 03:45:57;;;;;;;192.87;61.90;;;;;;;0.28;99.00;101022.81;5070336;28;20047;-63
2021/12/03 03:48:24;;;;;;;193.00;60.43;;;;;;;0.30;98.91;101020.97;5069077;28;20428;-63
2021/12/03 03:50:50;;;;;;;201.67;62.10;;;;;;;0.32;99.24;101018.25;5069227;28;20173;-63
2021/12/03 03:53:15;;;;;;;180.60;60.00;;;;;;;0.33;99.13;101021.72;5068343;28;20107;-63
2021/12/03 03:55:40;;;;;;;171.50;58.87;;;;;;;0.33;99.13;101021.72;5065630;28;20162;-63
2021/12/03 03:58:06;;;;;;;172.90;59.33;;;;;;;0.35;99.12;101017.22;5067425;28;20490;-63
2021/12/03 04:00:36;;;;;;;178.00;60.77;;;;;;;0.35;98.96;101004.16;5067347;28;20395;-63
2021/12/03 04:03:02;;;;;;;165.05;60.30;;;;;;;0.35;99.07;101007.59;5067839;28;20027;-63
2021/12/03 04:05:27;;;;;;;180.40;59.53;;;;;;;0.35;98.97;101004.16;5066565;28;20024;-63
2021/12/03 04:07:53;;;;;;;165.20;61.73;;;;;;;0.35;99.31;100999.78;5068438;28;20027;-62
2021/12/03 04:10:18;;;;;;;161.90;60.00;;;;;;;0.35;98.97;100991.94;5069634;28;20743;-63
2021/12/03 04:12:44;;;;;;;162.43;59.67;;;;;;;0.39;98.87;100996.00;5067082;28;20098;-63
2021/12/03 04:15:11;;;;;;;160.53;62.40;;;;;;;0.39;98.81;100989.97;5069147;28;20099;-63
2021/12/03 04:17:37;;;;;;;155.23;58.37;;;;;;;0.41;98.81;100995.91;5067155;28;20039;-63
2021/12/03 04:20:05;;;;;;;146.63;58.47;;;;;;;0.41;98.88;101004.59;5068109;28;20032;-63
2021/12/03 04:22:31;;;;;;;153.13;59.97;;;;;;;0.42;98.91;101008.03;5069495;28;20066;-63
2021/12/03 04:24:57;;;;;;;166.33;58.93;;;;;;;0.43;98.93;101004.47;5068124;28;20541;-63
2021/12/03 04:27:22;;;;;;;162.17;61.43;;;;;;;0.43;98.65;100994.88;5066566;28;20025;-63
2021/12/03 04:29:47;;;;;;;176.30;62.70;;;;;;;0.46;98.78;100996.44;5067088;28;20020;-63
2021/12/03 04:32:14;;;;;;;171.00;60.73;;;;;;;0.47;98.76;100993.72;5068868;28;20548;-63
2021/12/03 04:34:40;;;;;;;171.03;60.27;;;;;;;0.47;98.62;100995.50;5068145;28;20021;-63
2021/12/03 04:37:05;;;;;;;184.90;63.73;;;;;;;0.49;98.78;100998.84;5065138;28;20063;-63
2021/12/03 04:39:31;;;;;;;174.03;62.37;;;;;;;0.48;98.55;100997.16;5065892;28;20502;-63
2021/12/03 04:41:56;;;;;;;161.20;59.60;;;;;;;0.50;98.77;101005.75;5064413;28;20028;-63
2021/12/03 04:44:21;;;;;;;160.87;58.40;;;;;;;0.50;98.48;100998.75;5069194;28;20056;-63
2021/12/03 04:46:47;;;;;;;181.67;61.40;;;;;;;0.51;98.72;101003.03;5067981;28;20024;-63
2021/12/03 04:49:12;;;;;;;161.80;60.03;;;;;;;0.53;98.56;101006.38;5066327;28;20033;-63
2021/12/03 04:51:37;;;;;;;173.43;60.00;;;;;;;0.56;98.66;101006.16;5068795;28;20039;-63
2021/12/03 04:54:03;;;;;;;172.13;58.27;;;;;;;0.60;98.68;101006.81;5066436;28;20074;-63
2021/12/03 04:56:28;;;;;;;183.70;58.13;;;;;;;0.63;98.81;100998.78;5068572;28;20028;-63
2021/12/03 04:58:53;;;;;;;176.00;60.30;;;;;;;0.66;98.83;100990.72;5067293;28;20031;-63
2021/12/03 05:01:19;;;;;;;158.53;56.93;;;;;;;0.68;98.74;100982.78;5062622;28;20063;-63
2021/12/03 05:03:44;;;;;;;167.90;59.17;;;;;;;0.71;98.75;100986.03;5068728;28;20404;-63
2021/12/03 05:06:14;;;;;;;164.00;59.80;;;;;;;0.76;98.81;100988.31;5067867;28;20566;-63
2021/12/03 05:08:40;;;;;;;162.43;57.37;;;;;;;0.77;99.01;100975.16;5066969;28;20107;-63
2021/12/03 05:11:05;;;;;;;160.90;59.63;;;;;;;0.78;98.75;100982.03;5066337;28;21431;-63
2021/12/03 05:13:35;;;;;;;155.33;58.63;;;;;;;0.80;98.79;100974.94;5066518;28;20028;-63
2021/12/03 05:16:02;;;;;;;146.60;54.63;;;;;;;0.80;98.77;100959.25;5068088;28;20476;-63
2021/12/03 05:18:29;;;;;;;146.63;56.47;;;;;;;0.84;98.80;100972.94;5066533;28;20020;-63
2021/12/03 05:20:57;;;;;;;128.53;54.50;;;;;;;0.85;98.76;100969.38;5068503;28;20016;-63
2021/12/03 05:23:24;;;;;;;135.50;51.27;;;;;;;0.88;98.71;100971.81;5067406;28;20494;-63
2021/12/03 05:25:50;;;;;;;119.67;51.03;;;;;;;0.87;98.63;100965.75;5067100;28;20055;-63
2021/12/03 05:28:16;;;;;;;118.97;49.20;;;;;;;0.93;98.56;100972.31;5066714;28;20066;-63
2021/12/03 05:30:42;;;;;;;99.73;43.00;;;;;;;0.96;98.56;100966.06;5066578;28;20455;-63
2021/12/03 05:33:08;;;;;;;95.73;43.70;;;;;;;0.98;98.21;100972.00;5067835;28;20037;-64
2021/12/03 05:35:34;;;;;;;94.90;42.63;;;;;;;1.00;98.06;100965.72;5066390;28;20035;-63
2021/12/03 05:38:00;;;;;;;94.17;41.20;;;;;;;1.01;97.85;100969.19;5067125;28;20054;-63
2021/12/03 05:40:25;;;;;;;88.90;39.73;;;;;;;1.03;97.90;100973.34;5066565;28;20025;-63
2021/12/03 05:42:51;;;;;;;80.43;38.33;;;;;;;1.00;97.56;100963.13;5068185;28;20029;-63
2021/12/03 05:45:21;;;;;;;75.17;36.33;;;;;;;1.03;97.62;100977.75;5067025;28;20058;-63
2021/12/03 05:47:46;;;;;;;70.80;35.47;;;;;;;1.04;97.44;100975.03;5066342;28;20407;-64
2021/12/03 05:50:12;;;;;;;67.47;33.37;;;;;;;1.04;97.52;100972.41;5067825;28;20035;-64
2021/12/03 05:52:38;;;;;;;60.83;29.43;;;;;;;1.05;97.38;100976.69;5067797;28;20666;-64
2021/12/03 05:55:04;;;;;;;55.47;28.90;;;;;;;1.08;97.24;100968.63;5067703;28;20103;-64
2021/12/03 05:57:30;;;;;;;57.57;27.90;;;;;;;1.08;97.20;100980.88;5066540;28;20052;-64
2021/12/03 05:59:55;;;;;;;50.53;25.60;;;;;;;1.10;97.15;100973.75;5065831;28;20024;-63
2021/12/03 06:02:20;;;;;;;50.30;24.00;;;;;;;1.11;96.97;100984.13;5065760;28;20024;-64
2021/12/03 06:04:46;;;;;;;43.67;23.60;;;;;;;1.12;96.79;100972.72;5067711;28;20024;-63
2021/12/03 06:07:12;;;;;;;43.80;22.37;;;;;;;1.15;96.75;100974.28;5067547;28;20032;-64
2021/12/03 06:09:37;;;;;;;44.10;21.10;;;;;;;1.14;96.74;100973.44;5066972;28;20365;-63
2021/12/03 06:12:03;;;;;;;46.90;21.03;;;;;;;1.15;96.65;100962.03;5067429;28;20025;-63
2021/12/03 06:14:29;;;;;;;39.53;18.60;;;;;;;1.17;96.27;100967.19;5064885;28;20373;-64
2021/12/03 06:16:55;;;;;;;39.10;18.10;;;;;;;1.18;96.22;100961.84;5066328;28;20140;-63
2021/12/03 06:19:21;;;;;;;38.50;17.03;;;;;;;1.16;95.95;100949.81;5059941;28;20056;-64
2021/12/03 06:21:47;;;;;;;37.27;16.13;;;;;;;1.20;95.69;100959.97;5066640;28;20038;-64
2021/12/03 06:24:12;;;;;;;40.20;15.30;;;;;;;1.12;95.62;100940.50;5067591;28;20016;-64
2021/12/03 06:26:37;;;;;;;41.03;15.20;;;;;;;1.22;95.19;100955.44;5066985;28;20031;-64
2021/12/03 06:29:03;;;;;;;33.37;14.23;;;;;;;1.24;95.23;100950.13;5066284;28;20028;-64
2021/12/03 06:31:28;;;;;;;32.20;12.40;;;;;;;1.29;94.83;100942.78;5067568;28;20028;-64
2021/12/03 06:33:53;;;;;;;35.97;11.80;;;;;;;1.32;94.26;100946.94;5067239;28;20146;-64
2021/12/03 06:36:19;;;;;;;30.37;11.63;;;;;;;1.33;93.75;100952.06;5066514;28;20059;-64
2021/12/03 06:38:44;;;;;;;33.30;11.03;;;;;;;1.34;93.58;100948.50;5065943;28;20024;-63
2021/12/03 06:41:09;;;;;;;28.03;11.13;;;;;;;1.34;93.03;100952.91;5066691;28;20068;-63
2021/12/03 06:43:35;;;;;;;30.47;10.47;;;;;;;1.34;92.57;100955.53;5066863;28;20048;-64
2021/12/03 06:46:00;;;;;;;23.03;9.70;;;;;;;1.32;92.25;100960.84;5067698;28;20020;-64
2021/12/03 06:48:26;;;;;;;25.00;9.60;;;;;;;1.31;92.10;100955.75;5063784;28;20472;-64
2021/12/03 06:50:52;;;;;;;20.60;9.07;;;;;;;1.30;91.75;100960.13;5066909;28;20024;-64
2021/12/03 06:53:21;;;;;;;20.73;9.00;;;;;;;1.26;91.82;100958.69;5066210;28;20468;-64
2021/12/03 06:55:47;;;;;;;19.90;8.70;;;;;;;1.24;91.32;100964.03;5066111;28;20406;-64
2021/12/03 06:58:18;;;;;;;24.77;8.70;;;;;;;1.25;91.03;100962.25;5064252;28;20117;-63
2021/12/03 07:00:46;;;;;;;23.57;9.93;;;;;;;1.27;90.77;100964.75;5067966;28;20074;-63
2021/12/03 07:03:11;;;;;;;20.47;9.27;;;;;;;1.24;90.31;100965.81;5071184;28;20111;-64
2021/12/03 07:05:37;;;;;;;23.63;8.03;;;;;;;1.23;90.06;100954.50;5070159;28;20549;-64
2021/12/03 07:08:03;;;;;;;25.30;8.90;;;;;;;1.22;90.04;100952.00;5069470;28;20016;-63
2021/12/03 07:10:29;;;;;;;24.23;9.07;;;;;;;1.19;89.70;100953.06;5065043;28;20052;-64
2021/12/03 07:12:55;;;;;;;21.90;8.30;;;;;;;1.16;89.61;100939.34;5069669;28;20056;-64
2021/12/03 07:15:20;;;;;;;22.60;8.33;;;;;;;1.18;89.28;100950.53;5070758;28;20047;-64
2021/12/03 07:17:50;;;;;;;22.33;8.17;;;;;;;1.16;88.85;100939.34;5066479;28;20028;-64
2021/12/03 07:20:15;;;;;;;22.75;8.07;;;;;;;1.14;88.78;100943.84;5067146;28;20507;-64
2021/12/03 07:22:41;;;;;;;19.73;7.90;;;;;;;1.14;88.78;100943.84;5071502;28;20016;-64
2021/12/03 07:25:07;;;;;;;21.87;8.23;;;;;;;1.13;88.52;100929.09;5066892;28;20032;-64
2021/12/03 07:27:33;;;;;;;26.00;8.60;;;;;;;1.13;88.39;100937.75;5067833;28;20082;-64
2021/12/03 07:29:58;;;;;;;22.47;8.30;;;;;;;1.15;88.38;100935.88;5069082;28;20444;-64
2021/12/03 07:32:24;;;;;;;21.13;8.77;;;;;;;1.15;88.31;100937.66;5069877;28;20525;-64
2021/12/03 07:34:51;;;;;;;20.43;8.30;;;;;;;1.13;88.37;100942.16;5067226;28;20652;-64
2021/12/03 07:37:16;;;;;;;19.87;8.33;;;;;;;1.15;87.98;100933.25;5069498;28;20031;-64
2021/12/03 07:39:44;;;;;;;18.27;7.93;;;;;;;1.16;88.03;100934.97;5068422;28;20028;-64
2021/12/03 07:42:09;;;;;;;25.13;8.20;;;;;;;1.16;88.26;100941.97;5070076;28;20028;-64
2021/12/03 07:44:34;;;;;;;23.30;8.47;;;;;;;1.18;88.01;100937.47;5062518;28;20032;-64
2021/12/03 07:47:00;;;;;;;21.70;8.63;;;;;;;1.17;87.99;100941.88;5066551;28;20617;-64
2021/12/03 07:49:26;;;;;;;23.07;8.27;;;;;;;1.18;87.94;100934.84;5064520;28;20029;-64
2021/12/03 07:51:52;;;;;;;22.50;8.33;;;;;;;1.20;87.79;100938.19;5066608;28;20112;-63
2021/12/03 07:54:18;;;;;;;19.60;8.37;;;;;;;1.22;87.79;100938.91;5066888;28;20178;-64
2021/12/03 07:56:44;;;;;;;21.47;7.73;;;;;;;1.22;87.86;100936.31;5069804;28;20111;-64
2021/12/03 07:59:09;;;;;;;21.03;8.40;;;;;;;1.21;87.81;100929.41;5067264;28;20040;-64
2021/12/03 08:01:34;;;;;;;23.37;8.23;;;;;;;1.24;87.96;100931.81;5067430;28;20028;-64
2021/12/03 08:04:00;;;;;;;21.93;8.90;;;;;;;1.20;87.88;100920.72;5069598;28;20038;-64
2021/12/03 08:06:25;;;;;;;23.20;8.80;;;;;;;1.20;88.14;100917.28;5069091;28;20430;-64
2021/12/03 08:08:51;;;;;;;22.93;8.07;;;;;;;1.22;88.11;100920.63;5068232;28;20103;-64
2021/12/03 08:11:16;;;;;;;26.73;9.17;;;;;;;1.20;88.35;100927.72;5068133;28;20024;-64
2021/12/03 08:13:41;;;;;;;21.73;8.17;;;;;;;1.18;88.21;100919.16;5069047;28;20104;-64
2021/12/03 08:16:07;;;;;;;24.63;8.53;;;;;;;1.18;88.32;100922.63;5073110;28;20173;-64
2021/12/03 08:18:32;;;;;;;23.30;8.37;;;;;;;1.17;88.92;100925.34;5067679;28;20036;-64
2021/12/03 08:20:58;;;;;;;22.73;8.20;;;;;;;1.20;88.44;100928.56;5068171;28;20024;-64
2021/12/03 08:23:23;;;;;;;22.73;7.60;;;;;;;1.20;88.68;100925.13;5067491;28;20028;-64
2021/12/03 08:25:48;;;;;;;29.57;7.63;;;;;;;1.22;88.75;100918.84;5069338;28;20028;-64
2021/12/03 08:28:14;;;;;;;24.43;8.37;;;;;;;1.23;88.63;100920.50;5067859;28;20110;-64
2021/12/03 08:30:40;;;;;;;22.50;7.60;;;;;;;1.24;89.17;100918.72;5069264;28;20066;-64
2021/12/03 08:33:05;;;;;;;24.47;7.50;;;;;;;1.26;88.83;100922.06;5067873;28;20037;-64
2021/12/03 08:35:31;;;;;;;28.50;7.77;;;;;;;1.25;88.88;100915.16;5068090;28;20025;-64
2021/12/03 08:37:57;;;;;;;29.97;7.90;;;;;;;1.29;89.08;100921.84;5066727;28;20426;-64
2021/12/03 08:40:23;;;;;;;23.47;7.63;;;;;;;1.31;88.91;100919.13;5068037;28;20044;-64
2021/12/03 08:42:49;;;;;;;21.23;7.30;;;;;;;1.33;88.89;100917.22;5063935;28;20553;-64
2021/12/03 08:45:17;;;;;;;20.03;7.60;;;;;;;1.34;89.00;100922.34;5068014;28;20036;-64
2021/12/03 08:47:46;;;;;;;27.45;7.82;;;;;;;1.37;88.85;100914.28;5060891;28;20024;-64
2021/12/03 08:50:15;;;;;;;20.77;7.00;;;;;;;1.40;88.74;100910.59;5067968;28;20036;-64
2021/12/03 08:55:24;;;;;;;23.40;6.67;;;;;;;1.43;88.76;100908.59;5068270;28;20040;-64
2021/12/03 08:57:50;;;;;;;21.57;6.97;;;;;;;1.45;88.52;100903.28;5068295;28;20016;-64
2021/12/03 09:00:19;;;;;;;25.57;7.23;;;;;;;1.47;88.42;100902.22;5068480;28;20028;-64
2021/12/03 09:02:44;;;;;;;25.50;7.15;;;;;;;1.46;88.50;100903.16;5067814;28;20108;-64
2021/12/03 09:05:10;;;;;;;23.13;6.73;;;;;;;1.50;88.37;100907.22;5068837;28;20142;-64
2021/12/03 09:07:36;;;;;;;22.73;6.73;;;;;;;1.52;88.36;100910.56;5067696;28;20625;-64
2021/12/03 09:10:04;;;;;;;27.20;7.27;;;;;;;1.54;88.39;100906.06;5068099;28;20024;-64
2021/12/03 09:12:29;;;;;;;21.87;6.33;;;;;;;1.58;88.24;100890.97;5067788;28;20387;-64
2021/12/03 09:14:58;;;;;;;22.20;6.70;;;;;;;1.61;88.52;100895.13;5068346;28;20528;-64
2021/12/03 09:20:05;;;;;;;22.50;6.33;;;;;;;1.65;87.95;100884.31;5066258;28;20028;-64
2021/12/03 09:22:37;;;;;;;;;;;;;;;1.69;88.07;100884.94;5069179;28;20032;-64
2021/12/03 09:25:05;;;;;;;23.53;6.20;;;;;;;1.69;88.15;100884.94;5064053;28;19968;-64
2021/12/03 09:27:30;;;;;;;21.27;6.70;;;;;;;1.71;88.01;100891.72;5068337;28;20024;-64
2021/12/03 09:29:57;;;;;;;22.93;6.90;;;;;;;1.71;87.82;100894.34;5066837;28;20370;-64
2021/12/03 09:32:26;;;;;;;21.73;6.43;;;;;;;1.74;88.11;100894.16;5067880;28;20649;-64
2021/12/03 09:34:52;;;;;;;17.73;5.95;;;;;;;1.78;87.99;100895.59;5068383;28;20090;-64
2021/12/03 09:37:17;;;;;;;22.17;6.37;;;;;;;1.81;88.05;100891.91;5068108;28;20024;-64
2021/12/03 09:39:45;;;;;;;18.17;6.20;;;;;;;1.82;87.98;100891.78;5067013;28;20024;-64
2021/12/03 09:42:12;;;;;;;23.93;6.50;;;;;;;1.85;87.94;100883.72;5063177;28;20492;-64
2021/12/03 09:44:39;;;;;;;20.43;6.23;;;;;;;1.87;87.70;100883.59;5061601;28;20016;-64
2021/12/03 09:47:05;;;;;;;23.07;6.37;;;;;;;1.91;87.89;100877.16;5075049;28;20025;-64
2021/12/03 09:49:38;;;;;;;21.53;6.63;;;;;;;1.91;87.93;100868.47;5067194;28;20373;-64
2021/12/03 09:54:52;;;;;;;24.03;7.23;;;;;;;1.98;87.84;100856.59;5066569;28;20111;-64
2021/12/03 09:57:30;;;;;;;31.87;6.57;;;;;;;2.01;88.10;100864.22;5063801;28;20070;-64
2021/12/03 10:00:12;;;;;;;24.10;6.67;;;;;;;2.01;87.99;100836.25;5060208;28;20035;-64
2021/12/03 10:03:17;;;;;;;29.13;6.33;;;;;;;2.05;88.09;100835.09;5067327;28;20395;-64
2021/12/03 10:17:40;;;;;;;23.07;6.37;;;;;;;2.21;88.48;100829.50;5063167;28;20090;-64
2021/12/03 10:23:31;;;;;;;19.00;6.47;;;;;;;2.26;88.43;100826.53;5063095;28;20119;-64
2021/12/03 10:26:25;;;;;;;23.37;7.13;;;;;;;2.27;88.70;100818.53;5067391;28;20036;-64
2021/12/03 10:28:57;;;;;;;22.10;6.60;;;;;;;2.28;88.43;100809.72;5065716;28;20028;-64
2021/12/03 10:31:52;;;;;;;22.33;6.60;;;;;;;2.29;88.43;100803.53;5068064;28;20024;-64
2021/12/03 10:34:41;;;;;;;20.87;6.20;;;;;;;2.34;88.50;100784.88;5067228;28;20426;-64
2021/12/03 10:37:38;;;;;;;20.50;6.83;;;;;;;2.37;88.66;100780.22;5066556;28;20033;-64
2021/12/03 10:43:21;;;;;;;23.47;6.80;;;;;;;2.49;88.72;100773.19;5066482;28;20119;-65
2021/12/03 10:54:00;;;;;;;22.07;7.17;;;;;;;2.59;88.29;100744.44;5070939;28;20024;-64
2021/12/03 11:02:44;;;;;;;22.23;6.87;;;;;;;2.64;87.57;100723.97;5053370;28;20515;-64
2021/12/03 11:14:33;;;;;;;19.47;6.73;;;;;;;2.86;86.89;100731.75;5066290;28;20040;-65
2021/12/03 11:16:49;;;;;;;20.07;6.60;;;;;;;2.89;86.67;100717.56;5060855;28;20694;-65
2021/12/03 11:27:40;;;;;;;17.50;6.70;;;;;;;3.03;86.29;100683.19;5065813;28;20591;-64
2021/12/03 11:30:11;;;;;;;24.30;7.60;;;;;;;3.08;86.57;100692.34;5067700;28;20115;-64
2021/12/03 11:36:05;;;;;;;19.73;6.90;;;;;;;3.14;85.61;100674.41;5074424;28;20051;-65
2021/12/03 11:38:43;;;;;;;17.53;6.50;;;;;;;3.18;85.68;100671.44;5068924;28;20124;-65
2021/12/03 11:41:53;;;;;;;15.50;6.90;;;;;;;3.20;85.66;100661.66;5064779;28;20036;-64
2021/12/03 12:23:46;;;;;;;17.25;6.40;;;;;;;3.65;82.56;100569.44;5067803;28;20036;-64
2021/12/03 12:29:34;;;;;;;16.70;6.07;;;;;;;3.68;81.86;100566.53;5067260;28;20086;-65
2021/12/03 13:01:05;;;;;;;11.53;4.60;;;;;;;3.79;80.59;100532.31;5062356;28;20074;-65
2021/12/03 13:09:16;;;;;;;9.83;4.83;;;;;;;3.73;80.15;100511.81;5066327;28;20031;-65
2021/12/03 13:25:46;;;;;;;10.47;4.30;;;;;;;3.78;79.41;100496.53;5064406;28;20430;-64
2021/12/03 13:57:04;;;;;;;9.30;4.80;;;;;;;2.77;87.85;100471.13;5067844;28;20075;-66
2021/12/03 14:02:15;;;;;;;10.77;5.27;;;;;;;2.70;89.06;100467.38;5067355;28;20097;-65
2021/12/03 14:05:10;;;;;;;10.03;5.27;;;;;;;2.71;89.43;100466.41;5057290;28;20107;-65
2021/12/03 14:08:27;;;;;;;11.37;5.27;;;;;;;2.62;89.87;100437.53;5069134;28;20697;-65
2021/12/03 14:11:36;;;;;;;9.93;5.50;;;;;;;2.70;90.10;100463.91;5070406;28;20130;-65
2021/12/03 14:14:43;;;;;;;9.37;5.43;;;;;;;2.68;90.44;100464.03;5071760;28;20047;-65
2021/12/03 14:23:40;;;;;;;10.87;5.57;;;;;;;2.66;90.78;100442.38;5071247;28;20442;-65
2021/12/03 14:29:39;;;;;;;8.97;5.30;;;;;;;2.95;90.25;100454.81;5069185;28;20066;-64
2021/12/03 14:36:49;;;;;;;11.90;5.37;;;;;;;3.09;89.65;100454.44;5069090;28;20042;-65
2021/12/03 14:47:12;;;;;;;11.93;5.30;;;;;;;3.20;89.28;100474.53;5075396;28;20028;-65